sensor_id;sensor_type;location;lat;lon;timestamp;P1;durP1;ratioP1;P2;durP2;ratioP2
75894;SDS011;64573;50.328;15.014;2023-08-21T00:01:13;16.27;;;9.45;;
75894;SDS011;64573;50.328;15.014;2023-08-21T00:03:38;15.38;;;9.23;;
75894;SDS011;64573;50.328;15.014;2023-08-21T00:06:04;12.98;;;7.95;;
75894;SDS011;64573;50.328;15.014;2023-08-21T00:08:29;17.05;;;9.27;;
75894;SDS011;64573;50.328;15.014;2023-08-21T00:10:55;12.55;;;9.00;;
75894;SDS011;64573;50.328;15.014;2023-08-21T00:13:20;16.92;;;9.48;;
75894;SDS011;64573;50.328;15.014;2023-08-21T00:15:46;10.25;;;8.32;;
75894;SDS011;64573;50.328;15.014;2023-08-21T00:18:11;12.57;;;8.98;;
75894;SDS011;64573;50.328;15.014;2023-08-21T00:20:37;12.32;;;8.90;;
75894;SDS011;64573;50.328;15.014;2023-08-21T00:23:02;13.40;;;8.30;;
75894;SDS011;64573;50.328;15.014;2023-08-21T00:25:28;9.65;;;7.70;;
75894;SDS011;64573;50.328;15.014;2023-08-21T00:27:53;12.93;;;7.97;;
75894;SDS011;64573;50.328;15.014;2023-08-21T00:30:19;9.18;;;6.68;;
75894;SDS011;64573;50.328;15.014;2023-08-21T00:32:44;9.95;;;7.05;;
75894;SDS011;64573;50.328;15.014;2023-08-21T00:35:10;7.63;;;6.22;;
75894;SDS011;64573;50.328;15.014;2023-08-21T00:37:35;9.00;;;6.28;;
75894;SDS011;64573;50.328;15.014;2023-08-21T00:40:00;9.57;;;5.88;;
75894;SDS011;64573;50.328;15.014;2023-08-21T00:42:25;6.57;;;5.88;;
75894;SDS011;64573;50.328;15.014;2023-08-21T00:44:51;10.90;;;6.25;;
75894;SDS011;64573;50.328;15.014;2023-08-21T00:47:16;10.60;;;6.88;;
75894;SDS011;64573;50.328;15.014;2023-08-21T00:49:42;10.68;;;6.88;;
75894;SDS011;64573;50.328;15.014;2023-08-21T00:52:08;12.18;;;7.53;;
75894;SDS011;64573;50.328;15.014;2023-08-21T00:54:37;13.15;;;7.60;;
75894;SDS011;64573;50.328;15.014;2023-08-21T00:57:04;10.80;;;7.30;;
75894;SDS011;64573;50.328;15.014;2023-08-21T00:59:29;8.40;;;6.80;;
75894;SDS011;64573;50.328;15.014;2023-08-21T01:01:55;9.07;;;7.05;;
75894;SDS011;64573;50.328;15.014;2023-08-21T01:04:21;12.30;;;7.68;;
75894;SDS011;64573;50.328;15.014;2023-08-21T01:06:47;9.30;;;8.27;;
75894;SDS011;64573;50.328;15.014;2023-08-21T01:09:18;14.80;;;8.73;;
75894;SDS011;64573;50.328;15.014;2023-08-21T01:12:09;11.85;;;8.40;;
75894;SDS011;64573;50.328;15.014;2023-08-21T01:14:44;12.00;;;8.00;;
75894;SDS011;64573;50.328;15.014;2023-08-21T01:17:35;10.23;;;7.93;;
75894;SDS011;64573;50.328;15.014;2023-08-21T01:22:38;11.10;;;8.30;;
75894;SDS011;64573;50.328;15.014;2023-08-21T01:25:05;11.57;;;8.40;;
75894;SDS011;64573;50.328;15.014;2023-08-21T01:27:31;10.27;;;8.20;;
75894;SDS011;64573;50.328;15.014;2023-08-21T01:29:57;10.48;;;8.65;;
75894;SDS011;64573;50.328;15.014;2023-08-21T01:32:31;10.38;;;8.02;;
75894;SDS011;64573;50.328;15.014;2023-08-21T01:35:06;10.27;;;8.30;;
75894;SDS011;64573;50.328;15.014;2023-08-21T01:37:34;15.60;;;8.13;;
75894;SDS011;64573;50.328;15.014;2023-08-21T01:40:01;13.30;;;8.27;;
75894;SDS011;64573;50.328;15.014;2023-08-21T01:42:26;10.45;;;7.57;;
75894;SDS011;64573;50.328;15.014;2023-08-21T01:44:51;11.35;;;7.78;;
75894;SDS011;64573;50.328;15.014;2023-08-21T01:47:17;11.55;;;8.43;;
75894;SDS011;64573;50.328;15.014;2023-08-21T01:49:42;11.55;;;7.65;;
75894;SDS011;64573;50.328;15.014;2023-08-21T01:52:07;10.55;;;7.80;;
75894;SDS011;64573;50.328;15.014;2023-08-21T01:54:33;10.98;;;7.85;;
75894;SDS011;64573;50.328;15.014;2023-08-21T01:56:58;10.48;;;7.45;;
75894;SDS011;64573;50.328;15.014;2023-08-21T01:59:24;11.63;;;8.40;;
75894;SDS011;64573;50.328;15.014;2023-08-21T02:01:49;12.18;;;8.40;;
75894;SDS011;64573;50.328;15.014;2023-08-21T02:04:15;12.30;;;7.68;;
75894;SDS011;64573;50.328;15.014;2023-08-21T02:06:40;20.70;;;8.55;;
75894;SDS011;64573;50.328;15.014;2023-08-21T02:09:05;10.32;;;7.80;;
75894;SDS011;64573;50.328;15.014;2023-08-21T02:11:31;13.45;;;8.00;;
75894;SDS011;64573;50.328;15.014;2023-08-21T02:13:57;12.48;;;8.95;;
75894;SDS011;64573;50.328;15.014;2023-08-21T02:16:22;13.18;;;9.35;;
75894;SDS011;64573;50.328;15.014;2023-08-21T02:18:47;12.50;;;8.35;;
75894;SDS011;64573;50.328;15.014;2023-08-21T02:21:13;13.93;;;8.77;;
75894;SDS011;64573;50.328;15.014;2023-08-21T02:23:38;9.43;;;8.25;;
75894;SDS011;64573;50.328;15.014;2023-08-21T02:26:04;14.27;;;8.95;;
75894;SDS011;64573;50.328;15.014;2023-08-21T02:28:29;13.20;;;8.93;;
75894;SDS011;64573;50.328;15.014;2023-08-21T02:30:54;11.05;;;8.82;;
75894;SDS011;64573;50.328;15.014;2023-08-21T02:33:20;11.18;;;8.57;;
75894;SDS011;64573;50.328;15.014;2023-08-21T02:35:45;10.98;;;8.27;;
75894;SDS011;64573;50.328;15.014;2023-08-21T02:38:10;12.93;;;9.38;;
75894;SDS011;64573;50.328;15.014;2023-08-21T02:40:36;12.55;;;9.25;;
75894;SDS011;64573;50.328;15.014;2023-08-21T02:43:01;13.27;;;9.32;;
75894;SDS011;64573;50.328;15.014;2023-08-21T02:45:27;12.15;;;9.63;;
75894;SDS011;64573;50.328;15.014;2023-08-21T02:47:52;12.30;;;9.27;;
75894;SDS011;64573;50.328;15.014;2023-08-21T02:50:17;11.48;;;9.55;;
75894;SDS011;64573;50.328;15.014;2023-08-21T02:52:43;17.05;;;8.75;;
75894;SDS011;64573;50.328;15.014;2023-08-21T02:55:08;11.75;;;8.93;;
75894;SDS011;64573;50.328;15.014;2023-08-21T02:57:33;17.27;;;9.90;;
75894;SDS011;64573;50.328;15.014;2023-08-21T02:59:59;14.02;;;9.27;;
75894;SDS011;64573;50.328;15.014;2023-08-21T03:02:24;13.45;;;9.90;;
75894;SDS011;64573;50.328;15.014;2023-08-21T03:07:19;14.05;;;10.32;;
75894;SDS011;64573;50.328;15.014;2023-08-21T03:09:45;13.98;;;8.70;;
75894;SDS011;64573;50.328;15.014;2023-08-21T03:12:12;12.27;;;9.02;;
75894;SDS011;64573;50.328;15.014;2023-08-21T03:14:37;11.02;;;9.02;;
75894;SDS011;64573;50.328;15.014;2023-08-21T03:17:03;13.95;;;9.98;;
75894;SDS011;64573;50.328;15.014;2023-08-21T03:19:28;13.95;;;10.30;;
75894;SDS011;64573;50.328;15.014;2023-08-21T03:21:53;12.85;;;9.35;;
75894;SDS011;64573;50.328;15.014;2023-08-21T03:24:18;12.77;;;9.95;;
75894;SDS011;64573;50.328;15.014;2023-08-21T03:26:44;16.00;;;9.57;;
75894;SDS011;64573;50.328;15.014;2023-08-21T03:29:09;13.13;;;9.77;;
75894;SDS011;64573;50.328;15.014;2023-08-21T03:31:35;13.45;;;9.68;;
75894;SDS011;64573;50.328;15.014;2023-08-21T03:34:00;16.92;;;10.00;;
75894;SDS011;64573;50.328;15.014;2023-08-21T03:36:26;12.75;;;9.90;;
75894;SDS011;64573;50.328;15.014;2023-08-21T03:39:01;16.45;;;10.02;;
75894;SDS011;64573;50.328;15.014;2023-08-21T03:41:28;12.88;;;10.43;;
75894;SDS011;64573;50.328;15.014;2023-08-21T03:43:54;18.90;;;11.90;;
75894;SDS011;64573;50.328;15.014;2023-08-21T03:46:19;21.73;;;14.45;;
75894;SDS011;64573;50.328;15.014;2023-08-21T03:48:45;19.23;;;14.13;;
75894;SDS011;64573;50.328;15.014;2023-08-21T03:51:10;20.35;;;14.68;;
75894;SDS011;64573;50.328;15.014;2023-08-21T03:53:35;20.08;;;13.38;;
75894;SDS011;64573;50.328;15.014;2023-08-21T03:56:01;19.10;;;14.13;;
75894;SDS011;64573;50.328;15.014;2023-08-21T03:58:26;22.08;;;16.52;;
75894;SDS011;64573;50.328;15.014;2023-08-21T04:00:54;20.88;;;14.90;;
75894;SDS011;64573;50.328;15.014;2023-08-21T04:03:20;21.15;;;13.90;;
75894;SDS011;64573;50.328;15.014;2023-08-21T04:05:45;24.50;;;16.05;;
75894;SDS011;64573;50.328;15.014;2023-08-21T04:08:11;22.00;;;13.82;;
75894;SDS011;64573;50.328;15.014;2023-08-21T04:10:36;25.98;;;14.13;;
75894;SDS011;64573;50.328;15.014;2023-08-21T04:13:03;16.98;;;12.98;;
75894;SDS011;64573;50.328;15.014;2023-08-21T04:15:29;18.20;;;12.35;;
75894;SDS011;64573;50.328;15.014;2023-08-21T04:17:54;15.48;;;10.90;;
75894;SDS011;64573;50.328;15.014;2023-08-21T04:20:20;28.42;;;12.07;;
75894;SDS011;64573;50.328;15.014;2023-08-21T04:22:46;17.35;;;11.32;;
75894;SDS011;64573;50.328;15.014;2023-08-21T04:27:37;17.42;;;10.23;;
75894;SDS011;64573;50.328;15.014;2023-08-21T04:30:03;14.02;;;9.40;;
75894;SDS011;64573;50.328;15.014;2023-08-21T04:32:30;11.80;;;10.15;;
75894;SDS011;64573;50.328;15.014;2023-08-21T04:34:55;11.63;;;9.40;;
75894;SDS011;64573;50.328;15.014;2023-08-21T04:37:20;12.07;;;9.05;;
75894;SDS011;64573;50.328;15.014;2023-08-21T04:39:46;16.65;;;10.38;;
75894;SDS011;64573;50.328;15.014;2023-08-21T04:42:15;11.98;;;8.52;;
75894;SDS011;64573;50.328;15.014;2023-08-21T04:44:41;12.93;;;8.40;;
75894;SDS011;64573;50.328;15.014;2023-08-21T04:47:27;11.85;;;8.82;;
75894;SDS011;64573;50.328;15.014;2023-08-21T04:49:52;11.93;;;8.75;;
75894;SDS011;64573;50.328;15.014;2023-08-21T04:52:21;10.65;;;8.43;;
75894;SDS011;64573;50.328;15.014;2023-08-21T04:54:47;12.43;;;8.60;;
75894;SDS011;64573;50.328;15.014;2023-08-21T04:57:13;14.98;;;7.97;;
75894;SDS011;64573;50.328;15.014;2023-08-21T04:59:39;10.43;;;8.40;;
75894;SDS011;64573;50.328;15.014;2023-08-21T05:02:04;10.07;;;7.97;;
75894;SDS011;64573;50.328;15.014;2023-08-21T05:04:30;12.25;;;7.88;;
75894;SDS011;64573;50.328;15.014;2023-08-21T05:06:55;9.73;;;7.47;;
75894;SDS011;64573;50.328;15.014;2023-08-21T05:09:21;11.77;;;7.65;;
75894;SDS011;64573;50.328;15.014;2023-08-21T05:11:46;13.18;;;7.47;;
75894;SDS011;64573;50.328;15.014;2023-08-21T05:14:11;14.48;;;8.25;;
75894;SDS011;64573;50.328;15.014;2023-08-21T05:16:37;10.45;;;7.55;;
75894;SDS011;64573;50.328;15.014;2023-08-21T05:19:02;12.48;;;7.65;;
75894;SDS011;64573;50.328;15.014;2023-08-21T05:21:28;10.23;;;7.55;;
75894;SDS011;64573;50.328;15.014;2023-08-21T05:23:53;13.60;;;7.90;;
75894;SDS011;64573;50.328;15.014;2023-08-21T05:26:18;10.98;;;7.45;;
75894;SDS011;64573;50.328;15.014;2023-08-21T05:28:45;11.77;;;7.88;;
75894;SDS011;64573;50.328;15.014;2023-08-21T05:31:10;9.55;;;7.43;;
75894;SDS011;64573;50.328;15.014;2023-08-21T05:33:36;11.60;;;7.35;;
75894;SDS011;64573;50.328;15.014;2023-08-21T05:36:01;16.17;;;7.60;;
75894;SDS011;64573;50.328;15.014;2023-08-21T05:38:27;11.85;;;6.75;;
75894;SDS011;64573;50.328;15.014;2023-08-21T05:40:52;11.95;;;7.10;;
75894;SDS011;64573;50.328;15.014;2023-08-21T05:43:18;9.75;;;6.80;;
75894;SDS011;64573;50.328;15.014;2023-08-21T05:45:43;10.98;;;7.30;;
75894;SDS011;64573;50.328;15.014;2023-08-21T05:48:08;10.27;;;7.05;;
75894;SDS011;64573;50.328;15.014;2023-08-21T05:50:34;9.15;;;7.03;;
75894;SDS011;64573;50.328;15.014;2023-08-21T05:53:02;10.68;;;7.63;;
75894;SDS011;64573;50.328;15.014;2023-08-21T05:55:31;11.38;;;8.00;;
75894;SDS011;64573;50.328;15.014;2023-08-21T05:57:57;11.38;;;8.60;;
75894;SDS011;64573;50.328;15.014;2023-08-21T06:00:22;11.98;;;7.85;;
75894;SDS011;64573;50.328;15.014;2023-08-21T06:02:47;11.18;;;7.95;;
75894;SDS011;64573;50.328;15.014;2023-08-21T06:05:13;8.65;;;7.13;;
75894;SDS011;64573;50.328;15.014;2023-08-21T06:07:38;10.68;;;6.88;;
75894;SDS011;64573;50.328;15.014;2023-08-21T06:10:05;12.82;;;7.78;;
75894;SDS011;64573;50.328;15.014;2023-08-21T06:12:32;8.98;;;6.63;;
75894;SDS011;64573;50.328;15.014;2023-08-21T06:14:57;9.77;;;6.65;;
75894;SDS011;64573;50.328;15.014;2023-08-21T06:17:23;9.23;;;7.07;;
75894;SDS011;64573;50.328;15.014;2023-08-21T06:22:13;9.80;;;6.97;;
75894;SDS011;64573;50.328;15.014;2023-08-21T06:24:40;10.45;;;7.65;;
75894;SDS011;64573;50.328;15.014;2023-08-21T06:27:06;10.65;;;6.88;;
75894;SDS011;64573;50.328;15.014;2023-08-21T06:29:32;9.63;;;6.90;;
75894;SDS011;64573;50.328;15.014;2023-08-21T06:31:57;12.73;;;7.68;;
75894;SDS011;64573;50.328;15.014;2023-08-21T06:34:22;11.30;;;7.07;;
75894;SDS011;64573;50.328;15.014;2023-08-21T06:36:48;10.95;;;7.32;;
75894;SDS011;64573;50.328;15.014;2023-08-21T06:39:13;8.88;;;7.10;;
75894;SDS011;64573;50.328;15.014;2023-08-21T06:41:38;9.35;;;7.03;;
75894;SDS011;64573;50.328;15.014;2023-08-21T06:44:04;12.10;;;7.05;;
75894;SDS011;64573;50.328;15.014;2023-08-21T06:46:29;10.27;;;7.13;;
75894;SDS011;64573;50.328;15.014;2023-08-21T06:48:54;11.00;;;7.05;;
75894;SDS011;64573;50.328;15.014;2023-08-21T06:51:20;8.82;;;6.50;;
75894;SDS011;64573;50.328;15.014;2023-08-21T06:53:45;10.52;;;7.20;;
75894;SDS011;64573;50.328;15.014;2023-08-21T06:56:11;8.30;;;7.00;;
75894;SDS011;64573;50.328;15.014;2023-08-21T06:58:37;8.23;;;7.18;;
75894;SDS011;64573;50.328;15.014;2023-08-21T07:01:02;8.43;;;6.80;;
75894;SDS011;64573;50.328;15.014;2023-08-21T07:03:27;7.97;;;7.13;;
75894;SDS011;64573;50.328;15.014;2023-08-21T07:05:53;11.55;;;6.88;;
75894;SDS011;64573;50.328;15.014;2023-08-21T07:08:22;9.57;;;7.15;;
75894;SDS011;64573;50.328;15.014;2023-08-21T07:10:48;9.80;;;7.47;;
75894;SDS011;64573;50.328;15.014;2023-08-21T07:13:13;9.48;;;7.03;;
75894;SDS011;64573;50.328;15.014;2023-08-21T07:15:39;10.32;;;7.50;;
75894;SDS011;64573;50.328;15.014;2023-08-21T07:18:04;11.07;;;7.30;;
75894;SDS011;64573;50.328;15.014;2023-08-21T07:20:30;14.55;;;7.40;;
75894;SDS011;64573;50.328;15.014;2023-08-21T07:22:55;9.32;;;7.07;;
75894;SDS011;64573;50.328;15.014;2023-08-21T07:25:21;11.82;;;6.93;;
75894;SDS011;64573;50.328;15.014;2023-08-21T07:27:46;11.02;;;7.13;;
75894;SDS011;64573;50.328;15.014;2023-08-21T07:30:12;10.77;;;7.35;;
75894;SDS011;64573;50.328;15.014;2023-08-21T07:32:37;10.52;;;7.07;;
75894;SDS011;64573;50.328;15.014;2023-08-21T07:35:03;8.07;;;7.25;;
75894;SDS011;64573;50.328;15.014;2023-08-21T07:37:28;10.18;;;7.38;;
75894;SDS011;64573;50.328;15.014;2023-08-21T07:39:54;10.93;;;7.75;;
75894;SDS011;64573;50.328;15.014;2023-08-21T07:42:22;12.00;;;6.47;;
75894;SDS011;64573;50.328;15.014;2023-08-21T07:44:48;7.30;;;6.57;;
75894;SDS011;64573;50.328;15.014;2023-08-21T07:47:13;7.45;;;6.43;;
75894;SDS011;64573;50.328;15.014;2023-08-21T07:49:38;11.02;;;6.88;;
75894;SDS011;64573;50.328;15.014;2023-08-21T07:52:03;10.80;;;7.00;;
75894;SDS011;64573;50.328;15.014;2023-08-21T07:54:29;8.80;;;7.30;;
75894;SDS011;64573;50.328;15.014;2023-08-21T07:56:55;10.57;;;7.28;;
75894;SDS011;64573;50.328;15.014;2023-08-21T07:59:20;9.10;;;6.93;;
75894;SDS011;64573;50.328;15.014;2023-08-21T08:01:46;10.30;;;7.32;;
75894;SDS011;64573;50.328;15.014;2023-08-21T08:04:11;8.63;;;7.10;;
75894;SDS011;64573;50.328;15.014;2023-08-21T08:06:36;7.50;;;6.38;;
75894;SDS011;64573;50.328;15.014;2023-08-21T08:09:02;8.88;;;6.95;;
75894;SDS011;64573;50.328;15.014;2023-08-21T08:11:28;10.25;;;7.50;;
75894;SDS011;64573;50.328;15.014;2023-08-21T08:13:54;7.90;;;7.10;;
75894;SDS011;64573;50.328;15.014;2023-08-21T08:16:20;9.65;;;7.40;;
75894;SDS011;64573;50.328;15.014;2023-08-21T08:18:45;9.75;;;6.93;;
75894;SDS011;64573;50.328;15.014;2023-08-21T08:21:11;9.23;;;7.20;;
75894;SDS011;64573;50.328;15.014;2023-08-21T08:23:36;9.27;;;7.18;;
75894;SDS011;64573;50.328;15.014;2023-08-21T08:26:02;9.50;;;7.30;;
75894;SDS011;64573;50.328;15.014;2023-08-21T08:28:27;10.40;;;7.10;;
75894;SDS011;64573;50.328;15.014;2023-08-21T08:30:53;10.00;;;7.35;;
75894;SDS011;64573;50.328;15.014;2023-08-21T08:33:18;10.57;;;6.50;;
75894;SDS011;64573;50.328;15.014;2023-08-21T08:35:44;10.07;;;6.70;;
75894;SDS011;64573;50.328;15.014;2023-08-21T08:38:09;8.95;;;7.00;;
75894;SDS011;64573;50.328;15.014;2023-08-21T08:40:36;9.65;;;7.53;;
75894;SDS011;64573;50.328;15.014;2023-08-21T08:43:07;12.20;;;7.35;;
75894;SDS011;64573;50.328;15.014;2023-08-21T08:45:33;10.32;;;7.10;;
75894;SDS011;64573;50.328;15.014;2023-08-21T08:47:59;11.32;;;7.70;;
75894;SDS011;64573;50.328;15.014;2023-08-21T08:50:28;12.05;;;8.30;;
75894;SDS011;64573;50.328;15.014;2023-08-21T08:52:58;10.27;;;7.70;;
75894;SDS011;64573;50.328;15.014;2023-08-21T08:55:24;10.05;;;7.85;;
75894;SDS011;64573;50.328;15.014;2023-08-21T08:57:51;10.27;;;7.00;;
75894;SDS011;64573;50.328;15.014;2023-08-21T09:00:17;8.27;;;6.60;;
75894;SDS011;64573;50.328;15.014;2023-08-21T09:02:42;10.93;;;7.03;;
75894;SDS011;64573;50.328;15.014;2023-08-21T09:05:08;12.50;;;6.60;;
75894;SDS011;64573;50.328;15.014;2023-08-21T09:07:35;10.63;;;6.70;;
75894;SDS011;64573;50.328;15.014;2023-08-21T09:12:26;10.13;;;6.47;;
75894;SDS011;64573;50.328;15.014;2023-08-21T09:14:51;8.40;;;6.22;;
75894;SDS011;64573;50.328;15.014;2023-08-21T09:17:17;7.95;;;6.60;;
75894;SDS011;64573;50.328;15.014;2023-08-21T09:19:43;9.07;;;6.18;;
75894;SDS011;64573;50.328;15.014;2023-08-21T09:22:12;8.18;;;6.85;;
75894;SDS011;64573;50.328;15.014;2023-08-21T09:24:40;14.00;;;7.13;;
75894;SDS011;64573;50.328;15.014;2023-08-21T09:27:24;15.25;;;6.30;;
75894;SDS011;64573;50.328;15.014;2023-08-21T09:29:49;8.18;;;6.43;;
75894;SDS011;64573;50.328;15.014;2023-08-21T09:32:15;10.75;;;6.20;;
75894;SDS011;64573;50.328;15.014;2023-08-21T09:34:41;10.55;;;6.00;;
75894;SDS011;64573;50.328;15.014;2023-08-21T09:39:35;12.48;;;6.10;;
75894;SDS011;64573;50.328;15.014;2023-08-21T09:42:05;9.48;;;5.88;;
75894;SDS011;64573;50.328;15.014;2023-08-21T09:44:40;8.90;;;5.97;;
75894;SDS011;64573;50.328;15.014;2023-08-21T09:47:11;7.30;;;6.10;;
75894;SDS011;64573;50.328;15.014;2023-08-21T09:49:40;6.13;;;4.63;;
75894;SDS011;64573;50.328;15.014;2023-08-21T09:52:06;10.30;;;6.13;;
75894;SDS011;64573;50.328;15.014;2023-08-21T09:54:35;11.38;;;6.72;;
75894;SDS011;64573;50.328;15.014;2023-08-21T09:57:02;7.50;;;5.70;;
75894;SDS011;64573;50.328;15.014;2023-08-21T09:59:29;7.68;;;6.00;;
75894;SDS011;64573;50.328;15.014;2023-08-21T10:01:58;7.78;;;6.38;;
75894;SDS011;64573;50.328;15.014;2023-08-21T10:04:25;8.38;;;6.28;;
75894;SDS011;64573;50.328;15.014;2023-08-21T10:06:52;9.70;;;6.93;;
75894;SDS011;64573;50.328;15.014;2023-08-21T10:09:21;7.20;;;6.47;;
75894;SDS011;64573;50.328;15.014;2023-08-21T10:11:48;11.18;;;7.45;;
75894;SDS011;64573;50.328;15.014;2023-08-21T10:14:13;9.85;;;7.50;;
75894;SDS011;64573;50.328;15.014;2023-08-21T10:19:08;9.18;;;7.03;;
75894;SDS011;64573;50.328;15.014;2023-08-21T10:21:39;8.02;;;7.10;;
75894;SDS011;64573;50.328;15.014;2023-08-21T10:24:04;12.90;;;7.22;;
75894;SDS011;64573;50.328;15.014;2023-08-21T10:26:30;11.40;;;6.75;;
75894;SDS011;64573;50.328;15.014;2023-08-21T10:33:56;11.80;;;7.15;;
75894;SDS011;64573;50.328;15.014;2023-08-21T10:39:17;11.02;;;6.55;;
75894;SDS011;64573;50.328;15.014;2023-08-21T10:41:53;8.27;;;6.80;;
75894;SDS011;64573;50.328;15.014;2023-08-21T10:44:33;12.73;;;7.18;;
75894;SDS011;64573;50.328;15.014;2023-08-21T10:47:19;10.13;;;6.95;;
75894;SDS011;64573;50.328;15.014;2023-08-21T10:49:46;10.25;;;6.32;;
75894;SDS011;64573;50.328;15.014;2023-08-21T10:54:47;10.32;;;7.93;;
75894;SDS011;64573;50.328;15.014;2023-08-21T10:57:14;10.38;;;7.30;;
75894;SDS011;64573;50.328;15.014;2023-08-21T10:59:53;12.13;;;7.50;;
75894;SDS011;64573;50.328;15.014;2023-08-21T11:02:20;10.32;;;6.53;;
75894;SDS011;64573;50.328;15.014;2023-08-21T11:04:47;7.93;;;6.47;;
75894;SDS011;64573;50.328;15.014;2023-08-21T11:07:13;9.35;;;7.28;;
75894;SDS011;64573;50.328;15.014;2023-08-21T11:12:05;8.95;;;7.07;;
75894;SDS011;64573;50.328;15.014;2023-08-21T11:14:34;8.20;;;6.50;;
75894;SDS011;64573;50.328;15.014;2023-08-21T11:17:00;12.10;;;6.88;;
75894;SDS011;64573;50.328;15.014;2023-08-21T11:19:26;7.47;;;6.25;;
75894;SDS011;64573;50.328;15.014;2023-08-21T11:29:24;8.60;;;5.97;;
75894;SDS011;64573;50.328;15.014;2023-08-21T11:31:49;11.55;;;6.03;;
75894;SDS011;64573;50.328;15.014;2023-08-21T11:34:19;10.18;;;6.03;;
75894;SDS011;64573;50.328;15.014;2023-08-21T11:36:45;7.10;;;5.53;;
75894;SDS011;64573;50.328;15.014;2023-08-21T11:39:10;9.55;;;5.65;;
75894;SDS011;64573;50.328;15.014;2023-08-21T11:41:52;11.48;;;5.82;;
75894;SDS011;64573;50.328;15.014;2023-08-21T11:44:21;8.25;;;5.60;;
75894;SDS011;64573;50.328;15.014;2023-08-21T11:46:47;7.05;;;5.45;;
75894;SDS011;64573;50.328;15.014;2023-08-21T11:49:12;8.52;;;5.13;;
75894;SDS011;64573;50.328;15.014;2023-08-21T11:51:38;6.90;;;4.93;;
75894;SDS011;64573;50.328;15.014;2023-08-21T11:54:04;8.30;;;5.55;;
75894;SDS011;64573;50.328;15.014;2023-08-21T11:56:31;11.25;;;5.13;;
75894;SDS011;64573;50.328;15.014;2023-08-21T11:58:57;6.75;;;5.22;;
75894;SDS011;64573;50.328;15.014;2023-08-21T12:01:26;6.80;;;4.95;;
75894;SDS011;64573;50.328;15.014;2023-08-21T12:03:51;6.10;;;5.25;;
75894;SDS011;64573;50.328;15.014;2023-08-21T12:06:20;5.88;;;5.25;;
75894;SDS011;64573;50.328;15.014;2023-08-21T12:08:46;7.68;;;5.00;;
75894;SDS011;64573;50.328;15.014;2023-08-21T12:13:37;5.63;;;4.60;;
75894;SDS011;64573;50.328;15.014;2023-08-21T12:16:03;8.60;;;4.70;;
75894;SDS011;64573;50.328;15.014;2023-08-21T12:18:28;6.60;;;4.82;;
75894;SDS011;64573;50.328;15.014;2023-08-21T12:20:54;8.35;;;5.00;;
75894;SDS011;64573;50.328;15.014;2023-08-21T12:23:19;8.02;;;4.72;;
75894;SDS011;64573;50.328;15.014;2023-08-21T12:25:44;5.93;;;4.35;;
75894;SDS011;64573;50.328;15.014;2023-08-21T12:28:11;6.40;;;5.22;;
75894;SDS011;64573;50.328;15.014;2023-08-21T12:30:36;9.40;;;5.32;;
75894;SDS011;64573;50.328;15.014;2023-08-21T12:33:01;6.63;;;5.10;;
75894;SDS011;64573;50.328;15.014;2023-08-21T12:35:27;7.00;;;4.95;;
75894;SDS011;64573;50.328;15.014;2023-08-21T12:37:56;11.95;;;5.20;;
75894;SDS011;64573;50.328;15.014;2023-08-21T12:40:22;10.52;;;5.35;;
75894;SDS011;64573;50.328;15.014;2023-08-21T12:42:48;6.90;;;5.18;;
75894;SDS011;64573;50.328;15.014;2023-08-21T12:45:14;9.60;;;5.85;;
75894;SDS011;64573;50.328;15.014;2023-08-21T12:47:40;5.28;;;4.60;;
75894;SDS011;64573;50.328;15.014;2023-08-21T12:50:05;6.85;;;4.78;;
75894;SDS011;64573;50.328;15.014;2023-08-21T12:52:31;17.65;;;6.07;;
75894;SDS011;64573;50.328;15.014;2023-08-21T12:54:57;6.35;;;5.03;;
75894;SDS011;64573;50.328;15.014;2023-08-21T12:57:22;11.43;;;5.63;;
75894;SDS011;64573;50.328;15.014;2023-08-21T12:59:47;9.65;;;4.90;;
75894;SDS011;64573;50.328;15.014;2023-08-21T13:02:13;9.73;;;5.35;;
75894;SDS011;64573;50.328;15.014;2023-08-21T13:04:38;13.13;;;5.22;;
75894;SDS011;64573;50.328;15.014;2023-08-21T13:07:04;5.43;;;4.88;;
75894;SDS011;64573;50.328;15.014;2023-08-21T13:09:30;6.80;;;5.25;;
75894;SDS011;64573;50.328;15.014;2023-08-21T13:11:55;9.48;;;5.55;;
75894;SDS011;64573;50.328;15.014;2023-08-21T13:14:21;12.18;;;5.60;;
75894;SDS011;64573;50.328;15.014;2023-08-21T13:19:13;15.57;;;4.88;;
75894;SDS011;64573;50.328;15.014;2023-08-21T13:21:39;8.88;;;4.53;;
75894;SDS011;64573;50.328;15.014;2023-08-21T13:24:04;5.13;;;4.50;;
75894;SDS011;64573;50.328;15.014;2023-08-21T13:26:30;7.18;;;4.28;;
75894;SDS011;64573;50.328;15.014;2023-08-21T13:28:56;5.88;;;4.10;;
75894;SDS011;64573;50.328;15.014;2023-08-21T13:33:50;6.97;;;4.30;;
75894;SDS011;64573;50.328;15.014;2023-08-21T13:36:16;7.03;;;4.13;;
75894;SDS011;64573;50.328;15.014;2023-08-21T13:38:43;4.63;;;4.05;;
75894;SDS011;64573;50.328;15.014;2023-08-21T13:43:38;6.60;;;4.60;;
75894;SDS011;64573;50.328;15.014;2023-08-21T13:46:04;6.13;;;5.10;;
75894;SDS011;64573;50.328;15.014;2023-08-21T13:51:00;6.35;;;4.78;;
75894;SDS011;64573;50.328;15.014;2023-08-21T13:53:26;6.38;;;4.70;;
75894;SDS011;64573;50.328;15.014;2023-08-21T13:55:51;8.18;;;5.55;;
75894;SDS011;64573;50.328;15.014;2023-08-21T13:58:17;5.85;;;5.07;;
75894;SDS011;64573;50.328;15.014;2023-08-21T14:00:42;7.07;;;5.18;;
75894;SDS011;64573;50.328;15.014;2023-08-21T14:03:09;11.48;;;6.05;;
75894;SDS011;64573;50.328;15.014;2023-08-21T14:05:35;8.40;;;6.30;;
75894;SDS011;64573;50.328;15.014;2023-08-21T14:08:00;7.95;;;5.80;;
75894;SDS011;64573;50.328;15.014;2023-08-21T14:10:26;6.63;;;5.47;;
75894;SDS011;64573;50.328;15.014;2023-08-21T14:12:51;9.07;;;5.85;;
75894;SDS011;64573;50.328;15.014;2023-08-21T14:15:17;8.10;;;5.80;;
75894;SDS011;64573;50.328;15.014;2023-08-21T14:17:45;8.98;;;5.90;;
75894;SDS011;64573;50.328;15.014;2023-08-21T14:20:11;6.78;;;5.45;;
75894;SDS011;64573;50.328;15.014;2023-08-21T14:22:37;9.60;;;5.85;;
75894;SDS011;64573;50.328;15.014;2023-08-21T14:25:03;7.50;;;5.63;;
75894;SDS011;64573;50.328;15.014;2023-08-21T14:27:31;8.68;;;5.35;;
75894;SDS011;64573;50.328;15.014;2023-08-21T14:29:57;6.57;;;5.50;;
75894;SDS011;64573;50.328;15.014;2023-08-21T14:32:22;6.00;;;5.38;;
75894;SDS011;64573;50.328;15.014;2023-08-21T14:34:47;7.47;;;4.80;;
75894;SDS011;64573;50.328;15.014;2023-08-21T14:37:13;7.00;;;4.78;;
75894;SDS011;64573;50.328;15.014;2023-08-21T14:39:40;6.50;;;4.80;;
75894;SDS011;64573;50.328;15.014;2023-08-21T14:42:06;8.40;;;5.05;;
75894;SDS011;64573;50.328;15.014;2023-08-21T14:44:32;7.45;;;4.78;;
75894;SDS011;64573;50.328;15.014;2023-08-21T14:46:58;5.10;;;4.60;;
75894;SDS011;64573;50.328;15.014;2023-08-21T14:49:23;7.50;;;4.93;;
75894;SDS011;64573;50.328;15.014;2023-08-21T14:51:49;13.75;;;4.97;;
75894;SDS011;64573;50.328;15.014;2023-08-21T14:54:14;11.60;;;4.90;;
75894;SDS011;64573;50.328;15.014;2023-08-21T14:56:40;9.95;;;5.28;;
75894;SDS011;64573;50.328;15.014;2023-08-21T14:59:05;5.55;;;4.80;;
75894;SDS011;64573;50.328;15.014;2023-08-21T15:01:35;6.10;;;4.60;;
75894;SDS011;64573;50.328;15.014;2023-08-21T15:04:01;8.43;;;4.60;;
75894;SDS011;64573;50.328;15.014;2023-08-21T15:06:26;12.98;;;4.72;;
75894;SDS011;64573;50.328;15.014;2023-08-21T15:08:52;6.57;;;3.83;;
75894;SDS011;64573;50.328;15.014;2023-08-21T15:11:17;5.30;;;4.30;;